createdAt,value
2023-01-23T00:00:57.605Z,-0.04
2023-01-23T00:03:24.799Z,-0.10
2023-01-23T00:06:03.306Z,-0.20
2023-01-23T00:08:30.609Z,-0.28
2023-01-23T00:10:57.881Z,-0.22
2023-01-23T00:13:25.027Z,-0.38
2023-01-23T00:15:52.036Z,-0.31
2023-01-23T00:18:19.221Z,-0.21
2023-01-23T00:20:46.116Z,-0.15
2023-01-23T00:23:13.161Z,-0.08
2023-01-23T00:25:40.115Z,-0.13
2023-01-23T00:28:07.142Z,-0.09
2023-01-23T00:30:34.401Z,-0.02
2023-01-23T00:33:01.340Z,0.02
2023-01-23T00:35:28.275Z,0.04
2023-01-23T00:37:55.476Z,0.05
2023-01-23T00:40:22.583Z,0.05
2023-01-23T00:42:49.636Z,0.07
2023-01-23T00:45:16.756Z,0.09
2023-01-23T00:47:43.710Z,0.10
2023-01-23T00:50:11.570Z,0.10
2023-01-23T00:52:38.656Z,0.10
2023-01-23T00:55:06.154Z,0.11
2023-01-23T00:57:33.481Z,0.11
2023-01-23T01:00:00.883Z,0.12
2023-01-23T01:02:28.070Z,0.11
2023-01-23T01:04:55.118Z,0.10
2023-01-23T01:07:22.926Z,0.10
2023-01-23T01:09:49.907Z,0.11
2023-01-23T01:12:16.918Z,0.10
2023-01-23T01:14:43.856Z,0.05
2023-01-23T01:17:10.815Z,0.09
2023-01-23T01:19:37.778Z,0.08
2023-01-23T01:22:04.720Z,0.06
2023-01-23T01:24:31.740Z,0.06
2023-01-23T01:26:59.159Z,0.01
2023-01-23T01:29:26.206Z,0.05
2023-01-23T01:31:53.278Z,0.11
2023-01-23T01:34:22.726Z,0.13
2023-01-23T01:36:51.810Z,0.13
2023-01-23T01:39:19.337Z,0.15
2023-01-23T01:41:46.839Z,0.17
2023-01-23T01:44:24.017Z,0.17
2023-01-23T01:46:51.196Z,0.16
2023-01-23T01:49:31.758Z,0.08
2023-01-23T01:52:08.476Z,-0.01
2023-01-23T01:54:39.655Z,-0.16
2023-01-23T01:57:28.439Z,-0.24
2023-01-23T02:00:08.211Z,-0.31
2023-01-23T02:02:59.619Z,-0.25
2023-01-23T02:05:32.204Z,-0.18
2023-01-23T02:08:35.553Z,-0.10
2023-01-23T02:11:03.637Z,-0.09
2023-01-23T02:13:37.130Z,-0.05
2023-01-23T02:16:10.122Z,-0.03
2023-01-23T02:18:42.932Z,-0.05
2023-01-23T02:21:10.334Z,-0.23
2023-01-23T02:23:47.996Z,-0.33
2023-01-23T02:26:28.798Z,-0.32
2023-01-23T02:28:56.248Z,-0.22
2023-01-23T02:31:27.342Z,-0.21
2023-01-23T02:33:56.823Z,-0.17
2023-01-23T02:36:26.635Z,-0.24
2023-01-23T02:39:13.369Z,-0.29
2023-01-23T02:41:49.114Z,-0.29
2023-01-23T02:44:29.877Z,-0.31
2023-01-23T02:47:02.693Z,-0.28
2023-01-23T02:49:30.476Z,-0.24
2023-01-23T02:51:57.721Z,-0.24
2023-01-23T02:54:24.996Z,-0.26
2023-01-23T02:56:52.128Z,-0.20
2023-01-23T02:59:40.196Z,-0.18
2023-01-23T03:02:08.220Z,-0.16
2023-01-23T03:04:35.276Z,-0.14
2023-01-23T03:07:02.214Z,-0.05
2023-01-23T03:09:29.517Z,0.03
2023-01-23T03:11:56.527Z,-0.05
2023-01-23T03:14:24.592Z,-0.13
2023-01-23T03:16:54.188Z,-0.07
2023-01-23T03:19:27.101Z,-0.09
2023-01-23T03:21:54.875Z,-0.15
2023-01-23T03:24:21.835Z,-0.21
2023-01-23T03:26:50.474Z,-0.33
2023-01-23T03:29:39.939Z,-0.24
2023-01-23T03:32:07.781Z,-0.20
2023-01-23T03:34:35.312Z,-0.24
2023-01-23T03:37:03.498Z,-0.13
2023-01-23T03:39:51.182Z,-0.03
2023-01-23T03:42:19.742Z,0.02
2023-01-23T03:44:48.677Z,0.07
2023-01-23T03:47:16.081Z,0.02
2023-01-23T03:49:43.033Z,0.07
2023-01-23T03:52:10.449Z,0.13
2023-01-23T03:54:38.557Z,0.17
2023-01-23T03:57:08.512Z,0.17
2023-01-23T03:59:47.857Z,0.19
2023-01-23T04:02:17.164Z,0.21
2023-01-23T04:04:44.140Z,0.25
2023-01-23T04:07:11.751Z,0.22
2023-01-23T04:09:40.977Z,0.05
2023-01-23T04:12:08.038Z,-0.05
2023-01-23T04:14:40.852Z,-0.11
2023-01-23T04:17:08.953Z,-0.15
2023-01-23T04:19:35.921Z,-0.09
2023-01-23T04:22:03.580Z,-0.08
2023-01-23T04:24:35.792Z,-0.01
2023-01-23T04:27:02.869Z,0.06
2023-01-23T04:29:30.152Z,0.07
2023-01-23T04:31:57.934Z,-0.02
2023-01-23T04:34:24.914Z,-0.08
2023-01-23T04:36:53.648Z,-0.07
2023-01-23T04:39:20.679Z,-0.33
2023-01-23T04:41:49.469Z,-0.29
2023-01-23T04:44:34.547Z,-0.48
2023-01-23T04:47:24.154Z,-0.44
2023-01-23T04:49:51.920Z,-0.31
2023-01-23T04:52:19.034Z,-0.18
2023-01-23T04:54:53.774Z,-0.13
2023-01-23T04:57:20.882Z,-0.09
2023-01-23T04:59:51.695Z,-0.06
2023-01-23T05:02:21.256Z,-0.03
2023-01-23T05:04:48.754Z,0.02
2023-01-23T05:07:15.920Z,0.05
2023-01-23T05:09:54.719Z,0.03
2023-01-23T05:12:22.357Z,0.02
2023-01-23T05:14:49.438Z,-0.03
2023-01-23T05:17:16.596Z,-0.11
2023-01-23T05:19:51.859Z,-0.07
2023-01-23T05:22:19.237Z,-0.08
2023-01-23T05:24:46.178Z,-0.02
2023-01-23T05:27:13.297Z,0.03
2023-01-23T05:29:43.056Z,0.04
2023-01-23T05:32:22.636Z,0.09
2023-01-23T05:34:54.982Z,0.12
2023-01-23T05:37:25.945Z,0.17
2023-01-23T05:39:57.417Z,0.21
2023-01-23T05:42:26.505Z,0.23
2023-01-23T05:45:25.443Z,0.25
2023-01-23T05:47:53.339Z,0.24
2023-01-23T05:50:22.730Z,0.15
2023-01-23T05:52:49.956Z,0.11
2023-01-23T05:55:17.804Z,-0.01
2023-01-23T05:57:47.127Z,-0.07
2023-01-23T06:00:38.447Z,-0.05
2023-01-23T06:03:24.212Z,-0.05
2023-01-23T06:06:02.327Z,-0.04
2023-01-23T06:08:29.564Z,-0.08
2023-01-23T06:11:00.772Z,-0.07
2023-01-23T06:13:29.834Z,-0.01
2023-01-23T06:15:57.186Z,0.03
2023-01-23T06:18:25.648Z,0.08
2023-01-23T06:21:02.783Z,0.10
2023-01-23T06:23:30.075Z,0.13
2023-01-23T06:26:01.192Z,0.15
2023-01-23T06:28:28.775Z,0.16
2023-01-23T06:30:55.984Z,0.18
2023-01-23T06:33:33.298Z,0.18
2023-01-23T06:36:02.182Z,0.17
2023-01-23T06:38:29.718Z,0.14
2023-01-23T06:40:57.924Z,0.12
2023-01-23T06:43:31.873Z,0.11
2023-01-23T06:45:58.907Z,0.03
2023-01-23T06:48:25.962Z,-0.03
2023-01-23T06:50:53.117Z,0.03
2023-01-23T06:53:20.596Z,0.08
2023-01-23T06:55:50.494Z,0.11
2023-01-23T06:58:18.239Z,0.11
2023-01-23T07:00:45.712Z,0.08
2023-01-23T07:03:31.097Z,-0.01
2023-01-23T07:06:02.658Z,-0.37
2023-01-23T07:08:30.839Z,-0.61
2023-01-23T07:10:58.686Z,-0.42
2023-01-23T07:13:28.033Z,-0.49
2023-01-23T07:15:56.339Z,-0.43
2023-01-23T07:18:23.938Z,-0.50
2023-01-23T07:20:51.371Z,-0.45
2023-01-23T07:23:18.278Z,-0.32
2023-01-23T07:25:45.223Z,-0.28
2023-01-23T07:28:12.633Z,-0.23
2023-01-23T07:30:40.174Z,-0.31
2023-01-23T07:33:07.227Z,-0.27
2023-01-23T07:35:34.233Z,-0.29
2023-01-23T07:38:01.233Z,-0.27
2023-01-23T07:40:28.436Z,-0.33
2023-01-23T07:42:57.095Z,-0.34
2023-01-23T07:45:24.091Z,-0.37
2023-01-23T07:47:51.179Z,-0.34
2023-01-23T07:50:18.574Z,-0.30
2023-01-23T07:52:45.784Z,-0.41
2023-01-23T07:55:12.762Z,-0.46
2023-01-23T07:57:39.827Z,-0.42
2023-01-23T08:00:08.230Z,-0.37
2023-01-23T08:02:39.681Z,-0.45
2023-01-23T08:05:07.225Z,-0.34
2023-01-23T08:07:34.352Z,-0.29
2023-01-23T08:10:01.221Z,-0.27
2023-01-23T08:12:28.376Z,-0.31
2023-01-23T08:14:55.300Z,-0.29
2023-01-23T08:17:22.320Z,-0.19
2023-01-23T08:19:49.488Z,-0.18
2023-01-23T08:22:16.607Z,-0.14
2023-01-23T08:24:43.608Z,-0.08
2023-01-23T08:27:12.162Z,-0.02
2023-01-23T08:29:39.302Z,0.03
2023-01-23T08:32:06.580Z,0.05
2023-01-23T08:34:33.637Z,-0.05
2023-01-23T08:37:00.637Z,-0.15
2023-01-23T08:39:28.236Z,-0.26
2023-01-23T08:41:55.244Z,-0.26
2023-01-23T08:44:22.214Z,-0.34
2023-01-23T08:46:49.270Z,-0.27
2023-01-23T08:49:19.670Z,-0.17
2023-01-23T08:51:47.217Z,-0.16
2023-01-23T08:54:14.312Z,-0.12
2023-01-23T08:56:41.435Z,-0.10
2023-01-23T08:59:09.253Z,-0.35
2023-01-23T09:01:36.292Z,-0.40
2023-01-23T09:04:03.601Z,-0.42
2023-01-23T09:06:30.619Z,-0.40
2023-01-23T09:08:57.819Z,-0.49
2023-01-23T09:11:25.233Z,-0.48
2023-01-23T09:13:53.958Z,-0.46
2023-01-23T09:16:21.580Z,-0.26
2023-01-23T09:18:48.551Z,-0.32
2023-01-23T09:21:17.195Z,-0.46
2023-01-23T09:23:44.374Z,-0.58
2023-01-23T09:26:13.401Z,-0.62
2023-01-23T09:28:42.985Z,-0.70
2023-01-23T09:31:12.670Z,-0.52
2023-01-23T09:33:41.232Z,-0.37
2023-01-23T09:36:09.056Z,-0.25
2023-01-23T09:38:36.417Z,-0.09
2023-01-23T09:41:14.737Z,-0.17
2023-01-23T09:44:07.542Z,-0.22
2023-01-23T09:46:42.052Z,-0.42
2023-01-23T09:49:31.235Z,-0.54
2023-01-23T09:51:58.497Z,-0.44
2023-01-23T09:54:44.624Z,-0.56
2023-01-23T09:57:14.792Z,-0.52
2023-01-23T09:59:58.647Z,-0.49
2023-01-23T10:02:27.561Z,-0.42
2023-01-23T10:04:54.836Z,-0.35
2023-01-23T10:07:45.422Z,-0.49
2023-01-23T10:10:51.452Z,-0.24
2023-01-23T10:13:23.592Z,-0.03
2023-01-23T10:15:58.159Z,-0.08
2023-01-23T10:18:31.512Z,-0.07
2023-01-23T10:21:22.958Z,0.03
2023-01-23T10:24:27.440Z,0.15
2023-01-23T10:26:58.755Z,0.09
2023-01-23T10:29:30.273Z,0.10
2023-01-23T10:32:01.452Z,0.14
2023-01-23T10:34:39.894Z,0.23
2023-01-23T10:37:46.856Z,0.28
2023-01-23T10:40:17.581Z,0.28
2023-01-23T10:42:44.598Z,0.31
2023-01-23T10:45:19.143Z,0.24
2023-01-23T10:47:54.584Z,0.03
2023-01-23T10:50:36.276Z,0.01
2023-01-23T10:53:20.016Z,-0.04
2023-01-23T10:55:48.199Z,-0.06
2023-01-23T10:58:29.218Z,-0.19
2023-01-23T11:00:56.471Z,-0.25
2023-01-23T11:03:29.335Z,-0.11
2023-01-23T11:06:00.751Z,-0.02
2023-01-23T11:08:38.729Z,0.05
2023-01-23T11:11:23.589Z,-0.02
2023-01-23T11:14:11.226Z,0.05
2023-01-23T11:16:38.661Z,0.19
2023-01-23T11:19:08.912Z,0.25
2023-01-23T11:21:57.693Z,0.31
2023-01-23T11:24:39.130Z,0.22
2023-01-23T11:27:19.511Z,0.21
2023-01-23T11:30:09.326Z,0.21
2023-01-23T11:32:44.058Z,0.06
2023-01-23T11:35:16.982Z,-0.03
2023-01-23T11:37:44.291Z,-0.01
2023-01-23T11:40:19.273Z,-0.13
2023-01-23T11:42:47.131Z,-0.07
2023-01-23T11:45:55.661Z,-0.01
2023-01-23T11:48:26.082Z,0.16
2023-01-23T11:51:21.582Z,0.25
2023-01-23T11:54:01.378Z,0.29
2023-01-23T11:56:41.894Z,0.29
2023-01-23T11:59:21.385Z,0.09
2023-01-23T12:05:08.035Z,-0.12
2023-01-23T12:08:13.856Z,-0.16
2023-01-23T12:11:12.173Z,-0.09
2023-01-23T12:14:04.276Z,0.01
2023-01-23T12:16:34.171Z,0.23
2023-01-23T12:19:07.046Z,0.23
2023-01-23T12:21:45.221Z,0.17
2023-01-23T12:24:58.272Z,0.20
2023-01-23T12:27:44.369Z,0.13
2023-01-23T12:30:29.982Z,0.03
2023-01-23T12:33:20.524Z,-0.02
2023-01-23T12:36:06.072Z,0.08
2023-01-23T12:38:52.397Z,0.05
2023-01-23T12:41:29.034Z,0.12
2023-01-23T12:44:07.331Z,0.10
2023-01-23T12:46:46.291Z,0.19
2023-01-23T12:49:25.880Z,0.35
2023-01-23T12:52:00.253Z,0.46
2023-01-23T12:54:36.892Z,0.20
2023-01-23T12:57:05.913Z,0.07
2023-01-23T13:00:02.323Z,0.04
2023-01-23T13:03:07.800Z,-0.09
2023-01-23T13:05:43.174Z,-0.08
2023-01-23T13:09:05.363Z,-0.13
2023-01-23T13:11:53.760Z,-0.05
2023-01-23T13:15:00.716Z,-0.13
2023-01-23T13:17:37.881Z,-0.07
2023-01-23T13:20:45.376Z,-0.04
2023-01-23T13:23:31.266Z,-0.02
2023-01-23T13:26:16.769Z,-0.03
2023-01-23T13:28:53.943Z,0.00
2023-01-23T13:31:47.503Z,-0.02
2023-01-23T13:34:18.067Z,-0.02
2023-01-23T13:36:49.403Z,-0.15
2023-01-23T13:39:27.838Z,-0.25
2023-01-23T13:42:14.075Z,-0.32
2023-01-23T13:45:20.425Z,-0.30
2023-01-23T14:22:34.475Z,-0.39
2023-01-23T14:25:01.551Z,-0.43
2023-01-23T14:27:52.133Z,-0.22
2023-01-23T14:30:24.806Z,-0.24
2023-01-23T14:32:51.995Z,-0.09
2023-01-23T14:35:40.241Z,-0.30
2023-01-23T14:38:08.373Z,-0.07
2023-01-23T14:40:49.259Z,-0.06
2023-01-23T14:43:28.047Z,-0.10
2023-01-23T14:46:06.750Z,-0.21
2023-01-23T14:48:39.411Z,-0.12
2023-01-23T14:51:20.113Z,0.01
2023-01-23T14:54:01.861Z,0.09
2023-01-23T14:56:34.465Z,0.03
2023-01-23T14:59:07.160Z,0.01
2023-01-23T15:01:35.851Z,-0.04
2023-01-23T15:04:24.551Z,0.02
2023-01-23T15:06:53.837Z,0.03
2023-01-23T15:09:30.875Z,-0.09
2023-01-23T15:12:08.995Z,-0.09
2023-01-23T15:14:39.080Z,-0.03
2023-01-23T15:17:12.860Z,0.05
2023-01-23T15:19:40.438Z,-0.13
2023-01-23T15:22:08.476Z,-0.10
2023-01-23T15:24:35.560Z,-0.19
2023-01-23T15:27:05.579Z,-0.24
2023-01-23T15:29:33.871Z,-0.19
2023-01-23T15:32:01.558Z,-0.12
2023-01-23T15:34:30.932Z,-0.09
2023-01-23T15:37:06.524Z,-0.06
2023-01-23T15:39:40.593Z,-0.30
2023-01-23T15:42:13.665Z,-0.37
2023-01-23T15:44:41.450Z,-0.47
2023-01-23T15:47:09.120Z,-0.44
2023-01-23T15:49:38.174Z,-0.37
2023-01-23T15:52:42.688Z,-0.27
2023-01-23T15:55:10.737Z,-0.23
2023-01-23T15:57:37.895Z,-0.11
2023-01-23T16:00:18.716Z,-0.01
2023-01-23T16:02:55.679Z,0.10
2023-01-23T16:05:26.618Z,0.10
2023-01-23T16:07:54.475Z,0.09
2023-01-23T16:10:27.119Z,0.14
2023-01-23T16:12:57.219Z,0.16
2023-01-23T16:15:25.714Z,0.19
2023-01-23T16:17:52.875Z,0.20
2023-01-23T16:20:23.844Z,0.19
2023-01-23T16:22:53.630Z,0.17
2023-01-23T16:25:44.459Z,0.14
2023-01-23T16:28:21.166Z,0.12
2023-01-23T16:30:50.984Z,0.02
2023-01-23T16:33:18.524Z,-0.07
2023-01-23T16:35:45.970Z,-0.13
2023-01-23T16:38:21.583Z,-0.15
2023-01-23T16:40:51.898Z,-0.04
2023-01-23T16:43:19.636Z,0.03
2023-01-23T16:45:46.587Z,0.03
2023-01-23T16:48:25.364Z,0.03
2023-01-23T16:50:57.698Z,-0.06
2023-01-23T16:53:27.298Z,-0.16
2023-01-23T16:55:56.480Z,-0.09
2023-01-23T16:58:26.780Z,-0.03
2023-01-23T17:01:01.375Z,-0.05
2023-01-23T17:03:32.300Z,-0.14
2023-01-23T17:06:00.109Z,-0.21
2023-01-23T17:08:27.349Z,-0.24
2023-01-23T17:11:01.153Z,-0.18
2023-01-23T17:13:31.737Z,-0.15
2023-01-23T17:16:00.285Z,-0.05
2023-01-23T17:18:29.599Z,-0.02
2023-01-23T17:20:57.197Z,-0.11
2023-01-23T17:23:25.457Z,-0.28
2023-01-23T17:26:00.474Z,-0.32
2023-01-23T17:28:28.955Z,-0.28
2023-01-23T17:30:56.477Z,-0.27
2023-01-23T17:33:30.556Z,-0.48
2023-01-23T17:35:58.051Z,-0.35
2023-01-23T17:38:26.892Z,-0.21
2023-01-23T17:40:54.195Z,-0.14
2023-01-23T17:43:21.587Z,-0.11
2023-01-23T17:45:50.558Z,-0.15
2023-01-23T17:48:27.734Z,-0.25
2023-01-23T17:50:54.951Z,-0.20
2023-01-23T17:53:24.137Z,-0.34
2023-01-23T17:55:53.032Z,-0.23
2023-01-23T17:58:20.626Z,-0.17
2023-01-23T18:00:51.137Z,-0.17
2023-01-23T18:03:21.928Z,-0.18
2023-01-23T18:05:49.243Z,-0.15
2023-01-23T18:08:18.410Z,-0.14
2023-01-23T18:10:47.043Z,-0.14
2023-01-23T18:13:19.080Z,-0.24
2023-01-23T18:16:10.866Z,-0.18
2023-01-23T18:18:40.719Z,-0.24
2023-01-23T18:21:14.521Z,-0.28
2023-01-23T18:23:42.006Z,-0.39
2023-01-23T18:26:27.646Z,-0.41
2023-01-23T18:29:19.343Z,-0.32
2023-01-23T18:32:08.184Z,-0.49
2023-01-23T18:34:47.984Z,-0.35
2023-01-23T18:37:38.457Z,-0.37
2023-01-23T18:40:18.304Z,-0.39
2023-01-23T18:43:07.195Z,-0.35
2023-01-23T18:45:34.676Z,-0.27
2023-01-23T18:48:02.186Z,-0.36
2023-01-23T18:50:30.655Z,-0.54
2023-01-23T18:53:21.317Z,-0.50
2023-01-23T18:55:55.124Z,-0.35
2023-01-23T18:58:51.133Z,-0.28
2023-01-23T19:01:40.406Z,-0.33
2023-01-23T19:04:15.402Z,-0.26
2023-01-23T19:06:42.810Z,-0.20
2023-01-23T19:09:20.714Z,-0.27
2023-01-23T19:12:14.071Z,-0.16
2023-01-23T19:15:07.803Z,-0.12
2023-01-23T19:17:53.479Z,-0.07
2023-01-23T19:20:26.328Z,-0.27
2023-01-23T19:23:24.432Z,-0.31
2023-01-23T19:25:51.569Z,-0.27
2023-01-23T19:28:18.948Z,-0.21
2023-01-23T19:30:46.267Z,-0.16
2023-01-23T19:33:17.855Z,-0.12
2023-01-23T19:35:46.773Z,-0.09
2023-01-23T19:38:15.236Z,-0.08
2023-01-23T19:40:43.361Z,-0.10
2023-01-23T19:43:18.464Z,-0.09
2023-01-23T19:45:46.911Z,-0.20
2023-01-23T19:48:15.069Z,-0.25
2023-01-23T19:50:43.962Z,-0.38
2023-01-23T19:53:14.925Z,-0.45
2023-01-23T19:55:42.069Z,-0.36
2023-01-23T19:58:09.149Z,-0.28
2023-01-23T20:00:36.639Z,-0.19
2023-01-23T20:03:05.173Z,-0.17
2023-01-23T20:05:32.881Z,-0.15
2023-01-23T20:08:01.237Z,-0.61
2023-01-23T20:10:28.899Z,-0.62
2023-01-23T20:12:56.911Z,-0.48
2023-01-23T20:15:25.713Z,-0.38
2023-01-23T20:17:53.402Z,-0.30
2023-01-23T20:20:21.705Z,-0.54
2023-01-23T20:22:49.142Z,-0.63
2023-01-23T20:25:17.407Z,-0.43
2023-01-23T20:27:44.661Z,-0.30
2023-01-23T20:30:15.748Z,-0.18
2023-01-23T20:32:43.084Z,-0.09
2023-01-23T20:35:10.262Z,-0.12
2023-01-23T20:37:37.674Z,-0.26
2023-01-23T20:40:05.266Z,-0.33
2023-01-23T20:42:33.913Z,-0.35
2023-01-23T20:45:01.031Z,-0.51
2023-01-23T20:47:28.140Z,-0.46
2023-01-23T20:49:55.087Z,-0.58
2023-01-23T20:52:40.616Z,-0.63
2023-01-23T20:55:08.692Z,-0.60
2023-01-23T20:57:53.997Z,-0.43
2023-01-23T21:00:21.485Z,-0.32
2023-01-23T21:02:50.261Z,-0.33
2023-01-23T21:05:17.388Z,-0.29
2023-01-23T21:07:44.481Z,-0.33
2023-01-23T21:10:11.640Z,-0.54
2023-01-23T21:12:38.581Z,-0.67
2023-01-23T21:15:05.978Z,-0.51
2023-01-23T21:17:33.029Z,-0.42
2023-01-23T21:20:00.200Z,-0.34
2023-01-23T21:22:27.208Z,-0.41
2023-01-23T21:24:54.217Z,-0.35
2023-01-23T21:27:23.482Z,-0.28
2023-01-23T21:29:51.609Z,-0.21
2023-01-23T21:32:18.605Z,-0.23
2023-01-23T21:34:45.495Z,-0.33
2023-01-23T21:37:12.500Z,-0.43
2023-01-23T21:39:39.797Z,-0.36
2023-01-23T21:42:06.778Z,-0.53
2023-01-23T21:44:35.545Z,-0.42
2023-01-23T21:47:03.261Z,-0.31
2023-01-23T21:49:31.520Z,-0.23
2023-01-23T21:51:58.583Z,-0.16
2023-01-23T21:54:25.571Z,-0.08
2023-01-23T21:56:52.530Z,-0.06
2023-01-23T21:59:19.589Z,-0.04
2023-01-23T22:01:46.961Z,-0.02
2023-01-23T22:04:18.661Z,0.00
2023-01-23T22:06:46.020Z,0.05
2023-01-23T22:09:17.231Z,0.05
2023-01-23T22:11:45.039Z,0.05
2023-01-23T22:14:12.279Z,-0.02
2023-01-23T22:16:48.426Z,-0.08
2023-01-23T22:19:19.407Z,-0.13
2023-01-23T22:21:46.957Z,-0.16
2023-01-23T22:24:14.902Z,-0.19
2023-01-23T22:26:42.649Z,-0.21
2023-01-23T22:29:10.750Z,-0.20
2023-01-23T22:31:37.884Z,-0.20
2023-01-23T22:34:04.868Z,-0.21
2023-01-23T22:36:31.881Z,-0.20
2023-01-23T22:38:58.963Z,-0.19
2023-01-23T22:41:26.111Z,-0.19
2023-01-23T22:43:54.731Z,-0.17
2023-01-23T22:46:22.517Z,-0.19
2023-01-23T22:48:49.812Z,-0.25
2023-01-23T22:51:24.504Z,-0.32
2023-01-23T22:53:53.143Z,-0.36
2023-01-23T22:56:20.274Z,-0.38
2023-01-23T22:58:48.291Z,-0.40
2023-01-23T23:01:15.686Z,-0.42
2023-01-23T23:03:42.868Z,-0.45
2023-01-23T23:06:12.795Z,-0.46
2023-01-23T23:08:39.870Z,-0.46
2023-01-23T23:11:09.031Z,-0.46
2023-01-23T23:13:37.927Z,-0.47
2023-01-23T23:16:09.086Z,-0.46
2023-01-23T23:18:39.215Z,-0.46
2023-01-23T23:21:08.916Z,-0.45
2023-01-23T23:23:36.261Z,-0.40
2023-01-23T23:26:04.915Z,-0.37
2023-01-23T23:28:33.395Z,-0.38
2023-01-23T23:31:00.963Z,-0.39
2023-01-23T23:33:28.106Z,-0.47
2023-01-23T23:35:55.367Z,-0.43
2023-01-23T23:38:22.723Z,-0.44
2023-01-23T23:41:04.533Z,-0.48
2023-01-23T23:43:31.510Z,-0.45
2023-01-23T23:46:00.331Z,-0.46
2023-01-23T23:48:28.206Z,-0.50
2023-01-23T23:50:55.643Z,-0.49
2023-01-23T23:53:22.774Z,-0.46
2023-01-23T23:55:49.825Z,-0.40
2023-01-23T23:58:16.926Z,-0.36
